Terminal Aerodrome Forecast
Issued by NWS Grand Forks, ND

Home | Current Version | Previous Version | Graphics & Text | Print | Product List | Glossary On
Versions: 1 2 3 4 5 6 7 8 9 10 11 12 13 14 15 16 17
746
FTUS43 KFGF 222320
TAFGFK
TAF
KGFK 222320Z 2300/2324 34012KT P6SM FEW200
     FM230800 28004KT P6SM FEW250
     FM231500 13004KT P6SM BKN200
     FM232300 06006KT P6SM BKN130=

USA.gov is the U.S. government's official web portal to all federal, state and local government web resources and services.